Terminal Aerodrome Forecast
Issued by NWS Melbourne, FL

Home | Current Version | Previous Version | Text Only | Print | Product List | Glossary On
Versions: 1 2 3 4 5 6 7 8 9 10 11 12 13 14 15 16 17
000
FTUS42 KMLB 261700
TAFDAB
TAF
KDAB 261735Z 2618/2718 27020G27KT P6SM FEW035
     FM270000 27012G19KT P6SM SKC
     FM270900 28010KT P6SM SKC=

USA.gov is the U.S. government's official web portal to all federal, state and local government web resources and services.